首页
METAR-TAF:

METAR-TAF

机场 :

斯德哥爾摩-阿蘭達機場

斯德哥爾摩-阿蘭達, 瑞典

纬度: 59-39N, 经度: 017-57E, 海拔: 38米

当前天气观测

该预报发布于26分钟前的08:20 UTC
风速3节,风向,在东转东北南转南东之间变化
温度 20°C
湿度 49%
气压 1010 hPa
能见度10公里或以上
1500米以下无云,无积雨云

METAR: ESSA 140820Z 10003KT 070V160 CAVOK 20/09 Q1010 NOSIG

时间: 10:46 (08:46 UTC)

预报

该预报发布于3小时和16分钟前的05:30 UTC
预报有效从14日的 06点(UTC)到 15日的 06点(UTC)
风速2节,风向多变
能见度10公里或以上
1500米以下无云,无积雨云
几率 40%
从 14日的 12点(UTC)到 15日的 01点(UTC)

TAF: ESSA 140530Z 1406/1506 VRB02KT CAVOK PROB40 1412/1501 RA

超过4000个机场的气象观测和天气预报(METAR&TAF报告)。

可查询的气象台以黄色和红色小点在地图上表示。

将鼠标移到小点上方,可查看气象台名称。

然后点击查看天气观测和预报。

如需切换地图:点击带黑十字的绿色按钮放大地图;点击带横线的绿色按钮缩小地图;或者点击绿色箭头查看邻近地区的地图。


METAR-TAF: